Impacts TAF Board
For situational awareness. Not to be used for flight planning purposes.
IDs:

KCLE - Cleveland/Hopkins In, OH, US

Issued at 1450 UTC 01 Mar 2021
Updated at 1654 UTC 01 Mar 2021
Potential Impact None Slight Moderate High
Time1651Z 01/17Z 01/18Z 01/19Z 01/20Z 01/21Z 01/22Z 01/23Z 02/00Z 02/01Z 02/02Z 02/03Z 02/04Z 02/05Z>>
Type OBS PRVL PRVL PRVL PRVL PRVL PRVL PRVL PRVL PRVL PRVL PRVL PRVL PRVL
VIS 10 >6 >6 >6 >6 >6 >6 >6 >6 >6 >6 >6 >6 >6
CIG -- 35 35 35 35 35 35 35 35 35 35 35 35 35
Cover SCT BKN BKN BKN BKN BKN BKN BKN BKN BKN BKN BKN BKN BKN
FltCat VFR VFR VFR VFR VFR VFR VFR VFR VFR VFR VFR VFR VFR VFR
WX -- -- -- -- -- -- -- -- -- -- -- -- -- --
WDir 290 290 290 290 290 290 290 290 290 290 320 320 320 320
WSpd 17 12 12 12 12 12 12 12 12 12 12 12 12 12
WGst 25 20 20 20 20 20 20 20 20 20 20 20 20 20
Raw TAF
KCLE 011450Z 0115/0218 29012G20KT P6SM SCT025 BKN035
  FM020200 32012G20KT P6SM BKN035
  FM020700 32008KT P6SM FEW035
  FM021500 23004KT P6SM FEW250


Raw METAR
KCLE 011651Z 29017G25KT 10SM SCT033 02/M04 A2998 RMK AO2 SLP173 T00221044
KCLE 011551Z 29015KT 10SM BKN035 BKN250 02/M05 A2998 RMK AO2 PK WND 28029/1531 SLP171 T00221050
KCLE 011451Z 29016G23KT 10SM OVC039 02/M04 A2997 RMK AO2 PK WND 30028/1422 SLP168 T00221039 51025
KCLE 011351Z 29011G19KT 10SM OVC037 02/M03 A2996 RMK AO2 SLP166 T00221028

METAR Board
Radar Display
Forecast Discussion
For situational awareness. Not to be used for flight planning purposes.